sensor_id;sensor_type;location;lat;lon;timestamp;P1;durP1;ratioP1;P2;durP2;ratioP2
43626;SDS011;29217;52.586;13.442;2023-05-07T00:01:41;18.98;;;12.38;;
43626;SDS011;29217;52.586;13.442;2023-05-07T00:04:07;17.83;;;11.82;;
43626;SDS011;29217;52.586;13.442;2023-05-07T00:06:33;17.63;;;12.07;;
43626;SDS011;29217;52.586;13.442;2023-05-07T00:08:59;18.40;;;11.50;;
43626;SDS011;29217;52.586;13.442;2023-05-07T00:11:26;21.58;;;11.90;;
43626;SDS011;29217;52.586;13.442;2023-05-07T00:13:52;20.42;;;12.07;;
43626;SDS011;29217;52.586;13.442;2023-05-07T00:16:18;17.25;;;12.02;;
43626;SDS011;29217;52.586;13.442;2023-05-07T00:18:44;18.77;;;11.52;;
43626;SDS011;29217;52.586;13.442;2023-05-07T00:21:10;19.10;;;11.00;;
43626;SDS011;29217;52.586;13.442;2023-05-07T00:23:36;17.23;;;11.32;;
43626;SDS011;29217;52.586;13.442;2023-05-07T00:26:03;18.65;;;11.63;;
43626;SDS011;29217;52.586;13.442;2023-05-07T00:28:29;17.02;;;10.85;;
43626;SDS011;29217;52.586;13.442;2023-05-07T00:30:55;20.48;;;12.02;;
43626;SDS011;29217;52.586;13.442;2023-05-07T00:33:21;20.15;;;12.15;;
43626;SDS011;29217;52.586;13.442;2023-05-07T00:35:47;18.50;;;11.55;;
43626;SDS011;29217;52.586;13.442;2023-05-07T00:38:13;18.83;;;11.75;;
43626;SDS011;29217;52.586;13.442;2023-05-07T00:40:39;20.55;;;12.32;;
43626;SDS011;29217;52.586;13.442;2023-05-07T00:43:05;17.75;;;11.82;;
43626;SDS011;29217;52.586;13.442;2023-05-07T00:45:32;15.82;;;11.15;;
43626;SDS011;29217;52.586;13.442;2023-05-07T00:47:59;17.95;;;12.02;;
43626;SDS011;29217;52.586;13.442;2023-05-07T00:50:26;17.27;;;11.13;;
43626;SDS011;29217;52.586;13.442;2023-05-07T00:52:53;18.42;;;11.23;;
43626;SDS011;29217;52.586;13.442;2023-05-07T00:55:22;19.13;;;12.05;;
43626;SDS011;29217;52.586;13.442;2023-05-07T00:57:49;15.85;;;10.73;;
43626;SDS011;29217;52.586;13.442;2023-05-07T01:00:16;15.93;;;9.82;;
43626;SDS011;29217;52.586;13.442;2023-05-07T01:02:43;17.92;;;11.75;;
43626;SDS011;29217;52.586;13.442;2023-05-07T01:05:12;18.00;;;11.93;;
43626;SDS011;29217;52.586;13.442;2023-05-07T01:07:38;18.00;;;11.23;;
43626;SDS011;29217;52.586;13.442;2023-05-07T01:10:05;17.65;;;11.68;;
43626;SDS011;29217;52.586;13.442;2023-05-07T01:12:32;16.25;;;11.25;;
43626;SDS011;29217;52.586;13.442;2023-05-07T01:14:58;20.10;;;11.38;;
43626;SDS011;29217;52.586;13.442;2023-05-07T01:17:24;18.98;;;11.05;;
43626;SDS011;29217;52.586;13.442;2023-05-07T01:19:50;18.25;;;11.25;;
43626;SDS011;29217;52.586;13.442;2023-05-07T01:22:23;20.13;;;11.23;;
43626;SDS011;29217;52.586;13.442;2023-05-07T01:24:51;17.25;;;11.48;;
43626;SDS011;29217;52.586;13.442;2023-05-07T01:27:17;16.08;;;10.95;;
43626;SDS011;29217;52.586;13.442;2023-05-07T01:29:43;16.33;;;11.07;;
43626;SDS011;29217;52.586;13.442;2023-05-07T01:32:09;16.52;;;11.20;;
43626;SDS011;29217;52.586;13.442;2023-05-07T01:34:35;16.42;;;10.95;;
43626;SDS011;29217;52.586;13.442;2023-05-07T01:37:02;15.02;;;10.38;;
43626;SDS011;29217;52.586;13.442;2023-05-07T01:39:28;14.40;;;9.85;;
43626;SDS011;29217;52.586;13.442;2023-05-07T01:41:54;18.88;;;11.23;;
43626;SDS011;29217;52.586;13.442;2023-05-07T01:44:21;16.45;;;10.98;;
43626;SDS011;29217;52.586;13.442;2023-05-07T01:46:48;15.32;;;10.13;;
43626;SDS011;29217;52.586;13.442;2023-05-07T01:49:14;21.23;;;10.55;;
43626;SDS011;29217;52.586;13.442;2023-05-07T01:51:40;17.05;;;10.68;;
43626;SDS011;29217;52.586;13.442;2023-05-07T01:54:07;15.50;;;10.55;;
43626;SDS011;29217;52.586;13.442;2023-05-07T01:56:33;29.00;;;11.93;;
43626;SDS011;29217;52.586;13.442;2023-05-07T01:58:59;14.32;;;10.15;;
43626;SDS011;29217;52.586;13.442;2023-05-07T02:01:25;18.15;;;11.20;;
43626;SDS011;29217;52.586;13.442;2023-05-07T02:03:51;21.95;;;11.35;;
43626;SDS011;29217;52.586;13.442;2023-05-07T02:06:18;16.35;;;10.57;;
43626;SDS011;29217;52.586;13.442;2023-05-07T02:08:44;16.88;;;10.55;;
43626;SDS011;29217;52.586;13.442;2023-05-07T02:11:11;18.35;;;9.98;;
43626;SDS011;29217;52.586;13.442;2023-05-07T02:13:37;16.83;;;10.43;;
43626;SDS011;29217;52.586;13.442;2023-05-07T02:16:03;15.90;;;10.45;;
43626;SDS011;29217;52.586;13.442;2023-05-07T02:18:29;16.13;;;10.15;;
43626;SDS011;29217;52.586;13.442;2023-05-07T02:20:55;15.60;;;10.10;;
43626;SDS011;29217;52.586;13.442;2023-05-07T02:23:21;14.85;;;9.68;;
43626;SDS011;29217;52.586;13.442;2023-05-07T02:25:47;13.05;;;9.23;;
43626;SDS011;29217;52.586;13.442;2023-05-07T02:28:13;14.27;;;9.60;;
43626;SDS011;29217;52.586;13.442;2023-05-07T02:30:39;15.38;;;10.00;;
43626;SDS011;29217;52.586;13.442;2023-05-07T02:33:05;17.98;;;9.18;;
43626;SDS011;29217;52.586;13.442;2023-05-07T02:35:33;16.85;;;9.85;;
43626;SDS011;29217;52.586;13.442;2023-05-07T02:37:59;16.25;;;9.77;;
43626;SDS011;29217;52.586;13.442;2023-05-07T02:40:25;14.77;;;9.68;;
43626;SDS011;29217;52.586;13.442;2023-05-07T02:42:51;14.98;;;9.80;;
43626;SDS011;29217;52.586;13.442;2023-05-07T02:45:17;13.43;;;8.70;;
43626;SDS011;29217;52.586;13.442;2023-05-07T02:47:43;15.60;;;10.02;;
43626;SDS011;29217;52.586;13.442;2023-05-07T02:50:09;14.35;;;8.15;;
43626;SDS011;29217;52.586;13.442;2023-05-07T02:52:35;14.13;;;7.85;;
43626;SDS011;29217;52.586;13.442;2023-05-07T02:55:01;14.93;;;8.60;;
43626;SDS011;29217;52.586;13.442;2023-05-07T02:57:27;13.05;;;8.45;;
43626;SDS011;29217;52.586;13.442;2023-05-07T02:59:53;12.65;;;8.27;;
43626;SDS011;29217;52.586;13.442;2023-05-07T03:02:19;14.60;;;8.77;;
43626;SDS011;29217;52.586;13.442;2023-05-07T03:04:45;17.80;;;8.88;;
43626;SDS011;29217;52.586;13.442;2023-05-07T03:07:11;14.73;;;7.90;;
43626;SDS011;29217;52.586;13.442;2023-05-07T03:09:37;10.77;;;7.47;;
43626;SDS011;29217;52.586;13.442;2023-05-07T03:12:03;12.98;;;7.78;;
43626;SDS011;29217;52.586;13.442;2023-05-07T03:14:29;15.10;;;7.80;;
43626;SDS011;29217;52.586;13.442;2023-05-07T03:16:55;12.25;;;8.05;;
43626;SDS011;29217;52.586;13.442;2023-05-07T03:19:21;14.88;;;8.30;;
43626;SDS011;29217;52.586;13.442;2023-05-07T03:21:47;16.85;;;8.38;;
43626;SDS011;29217;52.586;13.442;2023-05-07T03:24:13;12.00;;;8.35;;
43626;SDS011;29217;52.586;13.442;2023-05-07T03:26:39;13.95;;;8.82;;
43626;SDS011;29217;52.586;13.442;2023-05-07T03:29:05;13.35;;;8.73;;
43626;SDS011;29217;52.586;13.442;2023-05-07T03:31:31;12.63;;;8.60;;
43626;SDS011;29217;52.586;13.442;2023-05-07T03:33:57;13.63;;;8.10;;
43626;SDS011;29217;52.586;13.442;2023-05-07T03:36:23;12.88;;;9.02;;
43626;SDS011;29217;52.586;13.442;2023-05-07T03:38:51;11.52;;;8.07;;
43626;SDS011;29217;52.586;13.442;2023-05-07T03:41:17;14.40;;;9.48;;
43626;SDS011;29217;52.586;13.442;2023-05-07T03:43:43;14.80;;;8.77;;
43626;SDS011;29217;52.586;13.442;2023-05-07T03:46:09;15.77;;;8.77;;
43626;SDS011;29217;52.586;13.442;2023-05-07T03:48:35;14.45;;;8.60;;
43626;SDS011;29217;52.586;13.442;2023-05-07T03:51:01;13.20;;;8.10;;
43626;SDS011;29217;52.586;13.442;2023-05-07T03:53:27;12.15;;;7.65;;
43626;SDS011;29217;52.586;13.442;2023-05-07T03:55:53;12.43;;;7.95;;
43626;SDS011;29217;52.586;13.442;2023-05-07T03:58:19;13.63;;;8.23;;
43626;SDS011;29217;52.586;13.442;2023-05-07T04:00:45;14.10;;;8.40;;
43626;SDS011;29217;52.586;13.442;2023-05-07T04:03:11;11.30;;;7.90;;
43626;SDS011;29217;52.586;13.442;2023-05-07T04:05:37;11.43;;;7.97;;
43626;SDS011;29217;52.586;13.442;2023-05-07T04:08:03;10.48;;;7.55;;
43626;SDS011;29217;52.586;13.442;2023-05-07T04:10:30;11.45;;;8.05;;
43626;SDS011;29217;52.586;13.442;2023-05-07T04:12:56;10.18;;;7.00;;
43626;SDS011;29217;52.586;13.442;2023-05-07T04:15:23;13.52;;;8.13;;
43626;SDS011;29217;52.586;13.442;2023-05-07T04:17:49;13.50;;;8.25;;
43626;SDS011;29217;52.586;13.442;2023-05-07T04:20:15;9.93;;;7.35;;
43626;SDS011;29217;52.586;13.442;2023-05-07T04:22:41;12.02;;;7.60;;
43626;SDS011;29217;52.586;13.442;2023-05-07T04:25:08;12.93;;;8.02;;
43626;SDS011;29217;52.586;13.442;2023-05-07T04:27:34;12.88;;;8.18;;
43626;SDS011;29217;52.586;13.442;2023-05-07T04:30:01;15.73;;;8.45;;
43626;SDS011;29217;52.586;13.442;2023-05-07T04:32:27;11.57;;;7.68;;
43626;SDS011;29217;52.586;13.442;2023-05-07T04:34:54;12.20;;;7.65;;
43626;SDS011;29217;52.586;13.442;2023-05-07T04:37:20;17.35;;;8.10;;
43626;SDS011;29217;52.586;13.442;2023-05-07T04:39:46;18.90;;;8.15;;
43626;SDS011;29217;52.586;13.442;2023-05-07T04:42:16;12.13;;;7.38;;
43626;SDS011;29217;52.586;13.442;2023-05-07T04:44:43;13.45;;;7.22;;
43626;SDS011;29217;52.586;13.442;2023-05-07T04:47:09;12.80;;;7.05;;
43626;SDS011;29217;52.586;13.442;2023-05-07T04:49:35;12.65;;;7.55;;
43626;SDS011;29217;52.586;13.442;2023-05-07T04:52:01;11.55;;;7.38;;
43626;SDS011;29217;52.586;13.442;2023-05-07T04:54:28;18.83;;;7.95;;
43626;SDS011;29217;52.586;13.442;2023-05-07T04:56:54;12.27;;;7.93;;
43626;SDS011;29217;52.586;13.442;2023-05-07T04:59:20;11.00;;;7.55;;
43626;SDS011;29217;52.586;13.442;2023-05-07T05:01:46;10.95;;;6.95;;
43626;SDS011;29217;52.586;13.442;2023-05-07T05:04:12;11.20;;;7.22;;
43626;SDS011;29217;52.586;13.442;2023-05-07T05:06:38;10.60;;;7.18;;
43626;SDS011;29217;52.586;13.442;2023-05-07T05:09:04;12.52;;;7.80;;
43626;SDS011;29217;52.586;13.442;2023-05-07T05:11:31;10.30;;;7.22;;
43626;SDS011;29217;52.586;13.442;2023-05-07T05:13:58;11.45;;;7.18;;
43626;SDS011;29217;52.586;13.442;2023-05-07T05:16:25;14.50;;;6.85;;
43626;SDS011;29217;52.586;13.442;2023-05-07T05:18:51;12.20;;;6.90;;
43626;SDS011;29217;52.586;13.442;2023-05-07T05:21:19;9.40;;;6.88;;
43626;SDS011;29217;52.586;13.442;2023-05-07T05:23:45;9.35;;;6.70;;
43626;SDS011;29217;52.586;13.442;2023-05-07T05:26:11;12.73;;;7.30;;
43626;SDS011;29217;52.586;13.442;2023-05-07T05:28:37;10.32;;;6.47;;
43626;SDS011;29217;52.586;13.442;2023-05-07T05:31:03;9.27;;;6.40;;
43626;SDS011;29217;52.586;13.442;2023-05-07T05:33:29;8.60;;;6.07;;
43626;SDS011;29217;52.586;13.442;2023-05-07T05:35:55;9.02;;;6.32;;
43626;SDS011;29217;52.586;13.442;2023-05-07T05:38:21;8.43;;;5.78;;
43626;SDS011;29217;52.586;13.442;2023-05-07T05:40:47;13.82;;;6.55;;
43626;SDS011;29217;52.586;13.442;2023-05-07T05:43:13;11.20;;;6.75;;
43626;SDS011;29217;52.586;13.442;2023-05-07T05:45:39;8.30;;;6.00;;
43626;SDS011;29217;52.586;13.442;2023-05-07T05:48:05;11.73;;;6.50;;
43626;SDS011;29217;52.586;13.442;2023-05-07T05:50:33;9.63;;;5.78;;
43626;SDS011;29217;52.586;13.442;2023-05-07T05:53:00;10.15;;;5.90;;
43626;SDS011;29217;52.586;13.442;2023-05-07T05:55:26;14.85;;;7.00;;
43626;SDS011;29217;52.586;13.442;2023-05-07T05:57:52;10.40;;;6.40;;
43626;SDS011;29217;52.586;13.442;2023-05-07T06:00:18;10.05;;;6.40;;
43626;SDS011;29217;52.586;13.442;2023-05-07T06:02:47;10.88;;;6.10;;
43626;SDS011;29217;52.586;13.442;2023-05-07T06:05:13;14.65;;;6.28;;
43626;SDS011;29217;52.586;13.442;2023-05-07T06:07:39;8.43;;;5.72;;
43626;SDS011;29217;52.586;13.442;2023-05-07T06:10:06;9.85;;;6.68;;
43626;SDS011;29217;52.586;13.442;2023-05-07T06:12:32;9.25;;;6.28;;
43626;SDS011;29217;52.586;13.442;2023-05-07T06:14:58;12.27;;;6.40;;
43626;SDS011;29217;52.586;13.442;2023-05-07T06:17:24;9.38;;;6.43;;
43626;SDS011;29217;52.586;13.442;2023-05-07T06:19:50;8.27;;;5.97;;
43626;SDS011;29217;52.586;13.442;2023-05-07T06:22:16;10.45;;;5.80;;
43626;SDS011;29217;52.586;13.442;2023-05-07T06:24:42;9.57;;;6.15;;
43626;SDS011;29217;52.586;13.442;2023-05-07T06:27:08;7.35;;;5.55;;
43626;SDS011;29217;52.586;13.442;2023-05-07T06:29:34;8.23;;;6.13;;
43626;SDS011;29217;52.586;13.442;2023-05-07T06:32:10;9.50;;;6.55;;
43626;SDS011;29217;52.586;13.442;2023-05-07T06:34:36;9.48;;;6.13;;
43626;SDS011;29217;52.586;13.442;2023-05-07T06:37:02;8.65;;;5.78;;
43626;SDS011;29217;52.586;13.442;2023-05-07T06:39:28;10.30;;;5.82;;
43626;SDS011;29217;52.586;13.442;2023-05-07T06:41:54;12.02;;;6.03;;
43626;SDS011;29217;52.586;13.442;2023-05-07T06:44:20;8.32;;;5.78;;
43626;SDS011;29217;52.586;13.442;2023-05-07T06:46:46;10.82;;;6.35;;
43626;SDS011;29217;52.586;13.442;2023-05-07T06:49:12;12.95;;;6.63;;
43626;SDS011;29217;52.586;13.442;2023-05-07T06:51:39;9.32;;;5.95;;
43626;SDS011;29217;52.586;13.442;2023-05-07T06:54:05;9.50;;;5.40;;
43626;SDS011;29217;52.586;13.442;2023-05-07T06:56:31;9.45;;;5.43;;
43626;SDS011;29217;52.586;13.442;2023-05-07T06:58:57;9.10;;;5.15;;
43626;SDS011;29217;52.586;13.442;2023-05-07T07:01:23;9.48;;;5.90;;
43626;SDS011;29217;52.586;13.442;2023-05-07T07:03:49;7.80;;;5.38;;
43626;SDS011;29217;52.586;13.442;2023-05-07T07:06:16;7.60;;;5.15;;
43626;SDS011;29217;52.586;13.442;2023-05-07T07:08:42;9.27;;;5.68;;
43626;SDS011;29217;52.586;13.442;2023-05-07T07:11:08;7.45;;;5.63;;
43626;SDS011;29217;52.586;13.442;2023-05-07T07:13:34;10.25;;;5.85;;
43626;SDS011;29217;52.586;13.442;2023-05-07T07:16:00;7.65;;;5.32;;
43626;SDS011;29217;52.586;13.442;2023-05-07T07:18:27;12.82;;;5.40;;
43626;SDS011;29217;52.586;13.442;2023-05-07T07:20:53;9.88;;;5.45;;
43626;SDS011;29217;52.586;13.442;2023-05-07T07:23:19;8.75;;;4.97;;
43626;SDS011;29217;52.586;13.442;2023-05-07T07:25:45;13.93;;;6.40;;
43626;SDS011;29217;52.586;13.442;2023-05-07T07:28:11;7.15;;;4.68;;
43626;SDS011;29217;52.586;13.442;2023-05-07T07:30:37;9.18;;;4.68;;
43626;SDS011;29217;52.586;13.442;2023-05-07T07:33:03;8.57;;;4.47;;
43626;SDS011;29217;52.586;13.442;2023-05-07T07:35:30;9.05;;;4.50;;
43626;SDS011;29217;52.586;13.442;2023-05-07T07:37:56;6.47;;;4.13;;
43626;SDS011;29217;52.586;13.442;2023-05-07T07:40:22;10.02;;;4.35;;
43626;SDS011;29217;52.586;13.442;2023-05-07T07:42:48;6.20;;;4.63;;
43626;SDS011;29217;52.586;13.442;2023-05-07T07:45:14;10.50;;;3.92;;
43626;SDS011;29217;52.586;13.442;2023-05-07T07:47:40;6.30;;;3.95;;
43626;SDS011;29217;52.586;13.442;2023-05-07T07:50:06;7.45;;;3.88;;
43626;SDS011;29217;52.586;13.442;2023-05-07T07:52:32;8.45;;;3.85;;
43626;SDS011;29217;52.586;13.442;2023-05-07T07:54:58;4.50;;;3.75;;
43626;SDS011;29217;52.586;13.442;2023-05-07T07:57:24;3.53;;;2.60;;
43626;SDS011;29217;52.586;13.442;2023-05-07T07:59:50;4.78;;;3.10;;
43626;SDS011;29217;52.586;13.442;2023-05-07T08:02:17;7.25;;;2.95;;
43626;SDS011;29217;52.586;13.442;2023-05-07T08:04:43;6.88;;;3.30;;
43626;SDS011;29217;52.586;13.442;2023-05-07T08:07:09;4.15;;;3.05;;
43626;SDS011;29217;52.586;13.442;2023-05-07T08:09:36;4.90;;;3.00;;
43626;SDS011;29217;52.586;13.442;2023-05-07T08:12:02;5.22;;;3.55;;
43626;SDS011;29217;52.586;13.442;2023-05-07T08:14:28;4.95;;;3.60;;
43626;SDS011;29217;52.586;13.442;2023-05-07T08:16:54;5.15;;;3.25;;
43626;SDS011;29217;52.586;13.442;2023-05-07T08:19:20;4.95;;;2.88;;
43626;SDS011;29217;52.586;13.442;2023-05-07T08:21:47;5.28;;;3.00;;
43626;SDS011;29217;52.586;13.442;2023-05-07T08:24:13;8.68;;;2.75;;
43626;SDS011;29217;52.586;13.442;2023-05-07T08:26:39;3.85;;;2.78;;
43626;SDS011;29217;52.586;13.442;2023-05-07T08:29:06;6.35;;;2.90;;
43626;SDS011;29217;52.586;13.442;2023-05-07T08:31:32;5.28;;;3.00;;
43626;SDS011;29217;52.586;13.442;2023-05-07T08:33:58;5.93;;;2.70;;
43626;SDS011;29217;52.586;13.442;2023-05-07T08:36:24;6.93;;;2.72;;
43626;SDS011;29217;52.586;13.442;2023-05-07T08:38:53;3.35;;;2.65;;
43626;SDS011;29217;52.586;13.442;2023-05-07T08:41:19;4.63;;;3.05;;
43626;SDS011;29217;52.586;13.442;2023-05-07T08:43:49;4.28;;;2.88;;
43626;SDS011;29217;52.586;13.442;2023-05-07T08:46:19;5.78;;;2.95;;
43626;SDS011;29217;52.586;13.442;2023-05-07T08:48:47;3.42;;;2.45;;
43626;SDS011;29217;52.586;13.442;2023-05-07T08:51:15;6.78;;;2.83;;
43626;SDS011;29217;52.586;13.442;2023-05-07T08:53:41;4.45;;;2.78;;
43626;SDS011;29217;52.586;13.442;2023-05-07T08:56:10;3.33;;;2.05;;
43626;SDS011;29217;52.586;13.442;2023-05-07T08:58:37;4.45;;;2.75;;
43626;SDS011;29217;52.586;13.442;2023-05-07T09:01:05;4.72;;;2.63;;
43626;SDS011;29217;52.586;13.442;2023-05-07T09:03:32;3.90;;;2.45;;
43626;SDS011;29217;52.586;13.442;2023-05-07T09:05:58;3.88;;;2.38;;
43626;SDS011;29217;52.586;13.442;2023-05-07T09:08:25;3.53;;;2.28;;
43626;SDS011;29217;52.586;13.442;2023-05-07T09:10:52;4.35;;;2.40;;
43626;SDS011;29217;52.586;13.442;2023-05-07T09:13:18;3.90;;;2.60;;
43626;SDS011;29217;52.586;13.442;2023-05-07T09:15:44;6.05;;;2.60;;
43626;SDS011;29217;52.586;13.442;2023-05-07T09:18:10;5.45;;;2.20;;
43626;SDS011;29217;52.586;13.442;2023-05-07T09:20:36;4.53;;;2.75;;
43626;SDS011;29217;52.586;13.442;2023-05-07T09:23:02;6.28;;;2.33;;
43626;SDS011;29217;52.586;13.442;2023-05-07T09:25:29;4.43;;;2.38;;
43626;SDS011;29217;52.586;13.442;2023-05-07T09:27:55;4.97;;;2.55;;
43626;SDS011;29217;52.586;13.442;2023-05-07T09:30:21;3.42;;;2.22;;
43626;SDS011;29217;52.586;13.442;2023-05-07T09:32:47;3.80;;;2.50;;
43626;SDS011;29217;52.586;13.442;2023-05-07T09:35:17;2.95;;;2.42;;
43626;SDS011;29217;52.586;13.442;2023-05-07T09:37:43;7.10;;;2.80;;
43626;SDS011;29217;52.586;13.442;2023-05-07T09:40:19;4.80;;;2.03;;
43626;SDS011;29217;52.586;13.442;2023-05-07T09:42:46;4.63;;;2.40;;
43626;SDS011;29217;52.586;13.442;2023-05-07T09:45:12;3.67;;;2.47;;
43626;SDS011;29217;52.586;13.442;2023-05-07T09:47:38;5.88;;;2.47;;
43626;SDS011;29217;52.586;13.442;2023-05-07T09:50:05;3.70;;;2.22;;
43626;SDS011;29217;52.586;13.442;2023-05-07T09:52:34;2.08;;;1.88;;
43626;SDS011;29217;52.586;13.442;2023-05-07T09:55:00;5.28;;;1.85;;
43626;SDS011;29217;52.586;13.442;2023-05-07T09:57:27;3.53;;;2.03;;
43626;SDS011;29217;52.586;13.442;2023-05-07T09:59:55;4.80;;;2.05;;
43626;SDS011;29217;52.586;13.442;2023-05-07T10:02:22;2.35;;;1.80;;
43626;SDS011;29217;52.586;13.442;2023-05-07T10:04:49;2.20;;;1.73;;
43626;SDS011;29217;52.586;13.442;2023-05-07T10:07:16;3.58;;;2.17;;
43626;SDS011;29217;52.586;13.442;2023-05-07T10:09:42;3.15;;;2.20;;
43626;SDS011;29217;52.586;13.442;2023-05-07T10:12:09;3.63;;;2.20;;
43626;SDS011;29217;52.586;13.442;2023-05-07T10:14:35;2.53;;;2.10;;
43626;SDS011;29217;52.586;13.442;2023-05-07T10:17:02;3.08;;;2.28;;
43626;SDS011;29217;52.586;13.442;2023-05-07T10:19:28;5.68;;;2.00;;
43626;SDS011;29217;52.586;13.442;2023-05-07T10:21:55;1.77;;;1.60;;
43626;SDS011;29217;52.586;13.442;2023-05-07T10:24:25;4.60;;;1.92;;
43626;SDS011;29217;52.586;13.442;2023-05-07T10:26:52;6.30;;;2.33;;
43626;SDS011;29217;52.586;13.442;2023-05-07T10:29:21;1.98;;;1.70;;
43626;SDS011;29217;52.586;13.442;2023-05-07T10:31:55;2.65;;;1.70;;
43626;SDS011;29217;52.586;13.442;2023-05-07T10:34:25;3.33;;;1.95;;
43626;SDS011;29217;52.586;13.442;2023-05-07T10:36:52;2.55;;;1.70;;
43626;SDS011;29217;52.586;13.442;2023-05-07T10:39:19;3.55;;;1.67;;
43626;SDS011;29217;52.586;13.442;2023-05-07T10:41:45;4.68;;;1.77;;
43626;SDS011;29217;52.586;13.442;2023-05-07T10:44:11;4.60;;;1.88;;
43626;SDS011;29217;52.586;13.442;2023-05-07T10:46:37;3.65;;;2.00;;
43626;SDS011;29217;52.586;13.442;2023-05-07T10:51:31;2.83;;;1.92;;
43626;SDS011;29217;52.586;13.442;2023-05-07T10:56:36;5.15;;;1.75;;
43626;SDS011;29217;52.586;13.442;2023-05-07T11:04:16;1.90;;;1.60;;
43626;SDS011;29217;52.586;13.442;2023-05-07T11:15:04;1.83;;;1.48;;
43626;SDS011;29217;52.586;13.442;2023-05-07T11:17:31;4.35;;;1.88;;
43626;SDS011;29217;52.586;13.442;2023-05-07T11:19:59;1.98;;;1.70;;
43626;SDS011;29217;52.586;13.442;2023-05-07T11:24:54;3.05;;;1.65;;
43626;SDS011;29217;52.586;13.442;2023-05-07T11:27:23;2.10;;;1.50;;
43626;SDS011;29217;52.586;13.442;2023-05-07T11:29:50;6.22;;;1.58;;
43626;SDS011;29217;52.586;13.442;2023-05-07T11:32:22;2.80;;;1.52;;
43626;SDS011;29217;52.586;13.442;2023-05-07T11:34:51;2.53;;;1.35;;
43626;SDS011;29217;52.586;13.442;2023-05-07T11:37:17;3.83;;;1.40;;
43626;SDS011;29217;52.586;13.442;2023-05-07T11:39:43;6.70;;;1.67;;
43626;SDS011;29217;52.586;13.442;2023-05-07T11:45:11;2.35;;;1.48;;
43626;SDS011;29217;52.586;13.442;2023-05-07T11:47:37;3.38;;;1.55;;
43626;SDS011;29217;52.586;13.442;2023-05-07T11:50:04;2.15;;;1.65;;
43626;SDS011;29217;52.586;13.442;2023-05-07T11:52:30;4.68;;;1.48;;
43626;SDS011;29217;52.586;13.442;2023-05-07T11:54:57;2.92;;;1.40;;
43626;SDS011;29217;52.586;13.442;2023-05-07T11:57:24;4.20;;;1.42;;
43626;SDS011;29217;52.586;13.442;2023-05-07T11:59:56;1.10;;;1.00;;
43626;SDS011;29217;52.586;13.442;2023-05-07T12:02:22;2.72;;;1.45;;
43626;SDS011;29217;52.586;13.442;2023-05-07T12:04:52;3.35;;;1.38;;
43626;SDS011;29217;52.586;13.442;2023-05-07T12:07:17;2.42;;;1.40;;
43626;SDS011;29217;52.586;13.442;2023-05-07T12:09:44;1.85;;;1.50;;
43626;SDS011;29217;52.586;13.442;2023-05-07T12:12:11;1.70;;;1.23;;
43626;SDS011;29217;52.586;13.442;2023-05-07T12:14:40;2.90;;;1.35;;
43626;SDS011;29217;52.586;13.442;2023-05-07T12:17:07;1.45;;;1.30;;
43626;SDS011;29217;52.586;13.442;2023-05-07T12:19:34;2.95;;;1.50;;
43626;SDS011;29217;52.586;13.442;2023-05-07T12:22:00;2.88;;;1.50;;
43626;SDS011;29217;52.586;13.442;2023-05-07T12:24:26;1.40;;;1.10;;
43626;SDS011;29217;52.586;13.442;2023-05-07T12:26:52;1.75;;;1.20;;
43626;SDS011;29217;52.586;13.442;2023-05-07T12:29:22;2.50;;;1.63;;
43626;SDS011;29217;52.586;13.442;2023-05-07T12:31:49;8.48;;;1.65;;
43626;SDS011;29217;52.586;13.442;2023-05-07T12:34:15;2.22;;;1.30;;
43626;SDS011;29217;52.586;13.442;2023-05-07T12:36:41;5.25;;;1.40;;
43626;SDS011;29217;52.586;13.442;2023-05-07T12:39:07;1.73;;;1.40;;
43626;SDS011;29217;52.586;13.442;2023-05-07T12:41:52;2.78;;;1.50;;
43626;SDS011;29217;52.586;13.442;2023-05-07T12:44:18;2.60;;;1.75;;
43626;SDS011;29217;52.586;13.442;2023-05-07T12:46:46;1.90;;;1.45;;
43626;SDS011;29217;52.586;13.442;2023-05-07T12:49:12;2.75;;;1.60;;
43626;SDS011;29217;52.586;13.442;2023-05-07T12:51:38;2.25;;;1.20;;
43626;SDS011;29217;52.586;13.442;2023-05-07T12:54:04;1.98;;;1.45;;
43626;SDS011;29217;52.586;13.442;2023-05-07T12:56:31;2.65;;;1.40;;
43626;SDS011;29217;52.586;13.442;2023-05-07T12:58:57;4.00;;;1.70;;
43626;SDS011;29217;52.586;13.442;2023-05-07T13:01:28;4.53;;;1.85;;
43626;SDS011;29217;52.586;13.442;2023-05-07T13:03:54;3.67;;;1.42;;
43626;SDS011;29217;52.586;13.442;2023-05-07T13:06:20;2.70;;;1.63;;
43626;SDS011;29217;52.586;13.442;2023-05-07T13:08:46;2.25;;;1.50;;
43626;SDS011;29217;52.586;13.442;2023-05-07T13:11:13;1.77;;;1.40;;
43626;SDS011;29217;52.586;13.442;2023-05-07T13:13:39;2.70;;;1.60;;
43626;SDS011;29217;52.586;13.442;2023-05-07T13:16:06;2.85;;;1.70;;
43626;SDS011;29217;52.586;13.442;2023-05-07T13:18:33;2.08;;;1.27;;
43626;SDS011;29217;52.586;13.442;2023-05-07T13:21:00;2.10;;;1.40;;
43626;SDS011;29217;52.586;13.442;2023-05-07T13:23:26;5.32;;;1.80;;
43626;SDS011;29217;52.586;13.442;2023-05-07T13:25:52;3.60;;;1.63;;
43626;SDS011;29217;52.586;13.442;2023-05-07T13:28:22;3.13;;;1.67;;
43626;SDS011;29217;52.586;13.442;2023-05-07T13:30:48;3.30;;;2.05;;
43626;SDS011;29217;52.586;13.442;2023-05-07T13:33:16;2.50;;;1.75;;
43626;SDS011;29217;52.586;13.442;2023-05-07T13:35:43;3.75;;;1.90;;
43626;SDS011;29217;52.586;13.442;2023-05-07T13:38:09;2.40;;;1.40;;
43626;SDS011;29217;52.586;13.442;2023-05-07T13:40:35;4.80;;;1.38;;
43626;SDS011;29217;52.586;13.442;2023-05-07T13:43:01;7.47;;;1.88;;
43626;SDS011;29217;52.586;13.442;2023-05-07T13:45:27;2.47;;;1.60;;
43626;SDS011;29217;52.586;13.442;2023-05-07T13:47:55;2.85;;;1.73;;
43626;SDS011;29217;52.586;13.442;2023-05-07T13:50:21;2.45;;;1.75;;
43626;SDS011;29217;52.586;13.442;2023-05-07T13:52:47;4.75;;;1.70;;
43626;SDS011;29217;52.586;13.442;2023-05-07T13:55:18;3.53;;;1.60;;
43626;SDS011;29217;52.586;13.442;2023-05-07T13:57:44;7.93;;;2.55;;
43626;SDS011;29217;52.586;13.442;2023-05-07T14:00:10;2.05;;;1.40;;
43626;SDS011;29217;52.586;13.442;2023-05-07T14:02:37;2.33;;;1.33;;
43626;SDS011;29217;52.586;13.442;2023-05-07T14:05:03;2.45;;;1.40;;
43626;SDS011;29217;52.586;13.442;2023-05-07T14:07:29;1.75;;;1.30;;
43626;SDS011;29217;52.586;13.442;2023-05-07T14:09:56;1.70;;;1.30;;
43626;SDS011;29217;52.586;13.442;2023-05-07T14:12:22;2.20;;;1.27;;
43626;SDS011;29217;52.586;13.442;2023-05-07T14:14:47;8.25;;;1.33;;
43626;SDS011;29217;52.586;13.442;2023-05-07T14:17:15;2.55;;;1.20;;
43626;SDS011;29217;52.586;13.442;2023-05-07T14:19:41;2.25;;;1.40;;
43626;SDS011;29217;52.586;13.442;2023-05-07T14:22:07;4.13;;;1.40;;
43626;SDS011;29217;52.586;13.442;2023-05-07T14:24:33;4.47;;;1.40;;
43626;SDS011;29217;52.586;13.442;2023-05-07T14:26:59;3.08;;;1.25;;
43626;SDS011;29217;52.586;13.442;2023-05-07T14:29:25;4.40;;;1.50;;
43626;SDS011;29217;52.586;13.442;2023-05-07T14:31:51;3.00;;;1.25;;
43626;SDS011;29217;52.586;13.442;2023-05-07T14:34:17;3.58;;;1.40;;
43626;SDS011;29217;52.586;13.442;2023-05-07T14:36:43;4.25;;;1.30;;
43626;SDS011;29217;52.586;13.442;2023-05-07T14:39:09;3.17;;;1.55;;
43626;SDS011;29217;52.586;13.442;2023-05-07T14:41:35;3.33;;;1.55;;
43626;SDS011;29217;52.586;13.442;2023-05-07T14:44:01;3.33;;;1.52;;
43626;SDS011;29217;52.586;13.442;2023-05-07T14:46:28;6.47;;;1.60;;